Ravalli, Montana
Current Conditions -  °F | °C
As of 2:53 PM on Friday 31 Oct 2014 (Local Time) from KMSO Reporting Station
Clear Clear  
Wind Chill: 55°   Ceiling: Unl
Heat Index: 55°   Visibility: 10mi
Dew Point: 40°   Wind: 3mph
Humidity: 57%   Direction: 290°WNW
Pressure: 29.77"   Gusts: NA
Location:  47.27°N, 114.17°W
Report Text: KMSO 312053Z 29003KT 10SM CLR 13/04 A2977 RMK AO2 SLP087 T01280044 56017
Loading
Personal Weather Stations






























Interactive Weather Map
Tropical Storm Tracking
New forecast layout! Learn more

10-Day Weather Forecast

Advertisements
Track Severe Weather on mobile